createdAt,value
2019-05-01T00:06:01.916Z,12.40
2019-05-01T00:08:38.312Z,12.40
2019-05-01T00:11:05.906Z,12.30
2019-05-01T00:13:48.664Z,12.30
2019-05-01T00:16:24.609Z,12.20
2019-05-01T00:19:06.889Z,12.20
2019-05-01T00:21:43.112Z,12.10
2019-05-01T00:24:25.450Z,12.00
2019-05-01T00:27:01.593Z,12.00
2019-05-01T00:29:44.348Z,12.00
2019-05-01T00:32:20.774Z,12.00
2019-05-01T00:35:04.011Z,11.90
2019-05-01T00:37:33.639Z,11.80
2019-05-01T00:40:15.820Z,11.90
2019-05-01T00:43:07.869Z,11.80
2019-05-01T00:45:44.017Z,11.80
2019-05-01T00:48:11.647Z,11.70
2019-05-01T00:50:47.977Z,11.50
2019-05-01T00:53:23.441Z,11.50
2019-05-01T00:55:51.697Z,11.50
2019-05-01T01:01:30.846Z,11.40
2019-05-01T01:04:15.393Z,11.30
2019-05-01T01:06:51.300Z,11.30
2019-05-01T01:09:33.778Z,11.30
2019-05-01T01:12:09.782Z,11.20
2019-05-01T01:14:52.036Z,11.20
2019-05-01T01:17:28.362Z,11.20
2019-05-01T01:20:11.796Z,11.30
2019-05-01T01:22:47.284Z,11.40
2019-05-01T01:25:29.364Z,11.30
2019-05-01T01:28:05.545Z,11.30
2019-05-01T01:30:33.234Z,11.30
2019-05-01T01:33:09.206Z,11.30
2019-05-01T01:35:45.302Z,11.20
2019-05-01T01:38:13.646Z,11.20
2019-05-01T01:40:57.700Z,11.10
2019-05-01T01:43:33.490Z,11.00
2019-05-01T01:46:16.737Z,10.90
2019-05-01T01:49:05.739Z,10.90
2019-05-01T01:51:48.830Z,10.90
2019-05-01T01:54:32.536Z,10.90
2019-05-01T01:57:15.710Z,10.90
2019-05-01T01:59:51.504Z,10.90
2019-05-01T02:02:42.374Z,10.70
2019-05-01T02:05:26.875Z,10.70
2019-05-01T02:08:02.755Z,10.70
2019-05-01T02:10:44.983Z,10.70
2019-05-01T02:13:39.864Z,10.70
2019-05-01T02:16:22.648Z,10.70
2019-05-01T02:18:58.850Z,10.70
2019-05-01T02:21:41.279Z,10.60
2019-05-01T02:24:17.071Z,10.60
2019-05-01T02:27:01.612Z,10.60
2019-05-01T02:29:45.035Z,10.50
2019-05-01T02:32:30.105Z,10.50
2019-05-01T02:35:07.131Z,10.60
2019-05-01T02:42:34.630Z,10.40
2019-05-01T02:45:17.031Z,10.30
2019-05-01T02:48:00.543Z,10.10
2019-05-01T02:50:38.345Z,10.10
2019-05-01T02:53:20.070Z,10.00
2019-05-01T02:56:26.692Z,10.00
2019-05-01T02:59:13.639Z,9.90
2019-05-01T03:01:46.913Z,9.90
2019-05-01T03:04:27.189Z,9.90
2019-05-01T03:07:11.251Z,9.80
2019-05-01T03:09:48.659Z,9.70
2019-05-01T03:12:33.352Z,9.80
2019-05-01T03:15:10.593Z,9.80
2019-05-01T03:17:53.701Z,9.80
2019-05-01T03:20:58.193Z,9.90
2019-05-01T03:23:59.158Z,9.90
2019-05-01T03:26:42.410Z,10.00
2019-05-01T03:29:18.311Z,10.10
2019-05-01T03:32:16.682Z,10.20
2019-05-01T03:34:39.287Z,10.30
2019-05-01T03:37:21.245Z,10.10
2019-05-01T03:39:57.187Z,10.20
2019-05-01T03:42:39.982Z,10.10
2019-05-01T03:45:22.968Z,10.10
2019-05-01T03:47:58.838Z,10.20
2019-05-01T03:50:34.391Z,10.10
2019-05-01T03:53:16.387Z,10.00
2019-05-01T03:55:52.661Z,10.00
2019-05-01T03:58:35.776Z,10.10
2019-05-01T04:01:33.629Z,10.10
2019-05-01T04:04:20.042Z,10.20
2019-05-01T04:06:55.761Z,10.20
2019-05-01T04:09:38.580Z,10.10
2019-05-01T04:12:14.804Z,10.10
2019-05-01T04:14:57.497Z,10.10
2019-05-01T04:17:44.887Z,10.10
2019-05-01T04:22:55.918Z,10.10
2019-05-01T04:25:38.478Z,10.10
2019-05-01T04:28:45.813Z,10.10
2019-05-01T04:31:50.214Z,10.10
2019-05-01T04:34:36.852Z,10.20
2019-05-01T04:39:48.662Z,10.20
2019-05-01T04:42:31.179Z,10.20
2019-05-01T04:45:07.420Z,10.30
2019-05-01T04:47:50.566Z,10.30
2019-05-01T04:50:26.263Z,10.30
2019-05-01T04:53:08.706Z,10.30
2019-05-01T04:55:44.289Z,10.30
2019-05-01T04:58:27.479Z,10.30
2019-05-01T05:01:03.116Z,10.30
2019-05-01T05:03:45.540Z,10.20
2019-05-01T05:06:21.378Z,10.30
2019-05-01T05:09:04.477Z,10.30
2019-05-01T05:11:49.768Z,10.30
2019-05-01T05:14:37.099Z,10.40
2019-05-01T05:17:28.508Z,10.50
2019-05-01T05:20:11.984Z,10.40
2019-05-01T05:22:47.475Z,10.50
2019-05-01T05:25:30.481Z,10.40
2019-05-01T05:28:06.438Z,10.50
2019-05-01T05:30:52.439Z,10.50
2019-05-01T05:33:29.627Z,10.50
2019-05-01T05:35:57.153Z,10.50
2019-05-01T05:38:59.263Z,10.50
2019-05-01T05:41:51.167Z,10.50
2019-05-01T05:44:33.573Z,10.50
2019-05-01T05:47:01.921Z,10.40
2019-05-01T05:49:46.250Z,10.40
2019-05-01T05:52:52.232Z,10.50
2019-05-01T05:55:37.527Z,10.40
2019-05-01T06:04:11.826Z,10.30
2019-05-01T06:07:01.832Z,10.40
2019-05-01T06:10:07.920Z,10.60
2019-05-01T06:13:05.578Z,10.60
2019-05-01T06:16:07.557Z,10.60
2019-05-01T06:19:04.966Z,10.70
2019-05-01T06:22:05.088Z,10.60
2019-05-01T06:24:43.024Z,10.60
2019-05-01T06:27:19.371Z,10.60
2019-05-01T06:30:01.891Z,10.60
2019-05-01T06:32:40.018Z,10.60
2019-05-01T06:38:21.862Z,10.70
2019-05-01T06:41:05.689Z,10.80
2019-05-01T06:44:02.405Z,10.80
2019-05-01T06:46:53.661Z,10.80
2019-05-01T06:49:48.108Z,10.70
2019-05-01T06:52:31.369Z,10.70
2019-05-01T06:55:07.290Z,10.70
2019-05-01T06:57:50.869Z,10.70
2019-05-01T07:00:27.032Z,10.60
2019-05-01T07:03:05.998Z,10.60
2019-05-01T07:08:24.019Z,10.80
2019-05-01T07:10:59.839Z,10.90
2019-05-01T07:13:40.006Z,10.90
2019-05-01T07:18:48.526Z,11.00
2019-05-01T07:24:00.592Z,11.20
2019-05-01T07:26:47.917Z,11.20
2019-05-01T07:29:22.969Z,11.40
2019-05-01T07:32:06.317Z,11.40
2019-05-01T07:34:42.517Z,11.20
2019-05-01T07:37:27.719Z,11.10
2019-05-01T07:40:05.421Z,11.10
2019-05-01T07:42:50.939Z,11.20
2019-05-01T07:46:02.347Z,11.30
2019-05-01T07:48:47.374Z,11.30
2019-05-01T07:51:15.813Z,11.20
2019-05-01T07:54:04.049Z,11.20
2019-05-01T07:56:50.088Z,11.30
2019-05-01T08:02:15.089Z,11.50
2019-05-01T08:04:58.264Z,11.50
2019-05-01T08:07:34.123Z,11.50
2019-05-01T08:12:45.125Z,11.60
2019-05-01T08:15:43.275Z,11.70
2019-05-01T08:18:30.469Z,11.80
2019-05-01T08:21:34.593Z,11.80
2019-05-01T08:24:02.243Z,11.90
2019-05-01T08:35:00.566Z,12.00
2019-05-01T08:37:42.703Z,12.00
2019-05-01T08:40:50.823Z,12.00
2019-05-01T08:43:33.848Z,12.00
2019-05-01T08:46:24.867Z,12.10
2019-05-01T08:49:11.384Z,12.20
2019-05-01T08:51:44.948Z,12.20
2019-05-01T08:56:58.196Z,12.50
2019-05-01T08:59:40.387Z,12.50
2019-05-01T09:02:16.774Z,12.60
2019-05-01T09:05:02.463Z,12.50
2019-05-01T09:07:39.535Z,12.40
2019-05-01T09:10:23.300Z,12.30
2019-05-01T09:12:59.162Z,12.40
2019-05-01T09:15:43.836Z,12.50
2019-05-01T09:18:20.499Z,12.60
2019-05-01T09:21:12.739Z,12.70
2019-05-01T09:23:51.590Z,12.70
2019-05-01T09:26:56.938Z,12.80
2019-05-01T09:29:39.827Z,12.90
2019-05-01T09:32:22.590Z,13.00
2019-05-01T09:34:58.487Z,13.00
2019-05-01T09:37:41.114Z,13.10
2019-05-01T09:40:18.138Z,13.00
2019-05-01T09:43:01.276Z,12.90
2019-05-01T09:45:37.490Z,12.70
2019-05-01T09:48:05.826Z,12.90
2019-05-01T09:50:42.742Z,12.80
2019-05-01T09:53:48.216Z,13.00
2019-05-01T09:59:07.436Z,13.20
2019-05-01T10:01:49.792Z,13.20
2019-05-01T10:04:30.134Z,13.20
2019-05-01T10:06:58.252Z,13.40
2019-05-01T10:09:40.814Z,13.40
2019-05-01T10:12:17.357Z,13.30
2019-05-01T10:14:59.822Z,13.30
2019-05-01T10:17:28.176Z,13.30
2019-05-01T10:19:56.471Z,13.00
2019-05-01T10:22:49.700Z,12.90
2019-05-01T10:25:25.254Z,12.90
2019-05-01T10:31:01.633Z,13.20
2019-05-01T10:33:41.417Z,13.40
2019-05-01T10:36:39.924Z,13.70
2019-05-01T10:39:22.445Z,14.30
2019-05-01T10:41:59.103Z,15.00
2019-05-01T10:44:43.132Z,14.90
2019-05-01T10:47:18.741Z,14.80
2019-05-01T10:50:01.785Z,14.50
2019-05-01T10:52:40.525Z,14.30
2019-05-01T10:55:08.283Z,14.10
2019-05-01T10:57:46.133Z,13.90
2019-05-01T11:00:29.000Z,13.80
2019-05-01T11:03:13.338Z,13.80
2019-05-01T11:05:56.403Z,13.90
2019-05-01T11:08:32.124Z,14.00
2019-05-01T11:11:15.329Z,14.10
2019-05-01T11:13:51.691Z,14.10
2019-05-01T11:16:34.343Z,14.00
2019-05-01T11:19:10.478Z,14.00
2019-05-01T11:21:38.197Z,13.90
2019-05-01T11:24:05.986Z,14.00
2019-05-01T11:26:51.107Z,14.20
2019-05-01T11:29:19.476Z,14.40
2019-05-01T11:32:13.215Z,14.40
2019-05-01T11:34:54.227Z,14.20
2019-05-01T11:37:54.363Z,14.20
2019-05-01T11:40:34.095Z,14.30
2019-05-01T11:43:17.148Z,14.60
2019-05-01T11:45:55.317Z,14.90
2019-05-01T11:48:38.312Z,15.30
2019-05-01T11:51:16.986Z,15.50
2019-05-01T11:54:02.393Z,15.70
2019-05-01T11:57:02.947Z,16.10
2019-05-01T11:59:49.069Z,16.30
2019-05-01T12:08:35.408Z,17.00
2019-05-01T12:11:19.377Z,17.10
2019-05-01T12:13:56.782Z,17.30
2019-05-01T12:16:58.677Z,17.40
2019-05-01T12:22:41.410Z,17.60
2019-05-01T12:25:30.455Z,17.60
2019-05-01T12:28:05.927Z,17.00
2019-05-01T12:30:54.606Z,16.80
2019-05-01T12:33:39.856Z,16.80
2019-05-01T12:36:18.757Z,16.70
2019-05-01T12:39:01.733Z,17.00
2019-05-01T12:41:36.537Z,16.90
2019-05-01T12:44:23.667Z,17.00
2019-05-01T12:47:16.214Z,17.10
2019-05-01T12:52:31.806Z,17.20
2019-05-01T12:55:23.379Z,17.10
2019-05-01T12:57:59.642Z,17.00
2019-05-01T13:00:49.913Z,17.00
2019-05-01T13:03:30.360Z,17.00
2019-05-01T13:06:14.475Z,17.10
2019-05-01T13:08:50.870Z,17.40
2019-05-01T13:14:01.480Z,18.30
2019-05-01T13:16:37.207Z,18.40
2019-05-01T13:19:20.152Z,18.50
2019-05-01T13:21:55.937Z,18.60
2019-05-01T13:29:45.437Z,18.40
2019-05-01T13:32:55.446Z,18.60
2019-05-01T13:35:38.766Z,18.70
2019-05-01T13:38:14.176Z,18.80
2019-05-01T13:40:57.432Z,19.00
2019-05-01T13:43:32.924Z,19.10
2019-05-01T13:46:15.669Z,19.20
2019-05-01T13:48:51.333Z,19.20
2019-05-01T13:51:36.355Z,19.20
2019-05-01T13:54:14.011Z,19.00
2019-05-01T13:59:24.211Z,18.70
2019-05-01T14:02:02.134Z,18.30
2019-05-01T14:04:45.932Z,17.90
2019-05-01T14:07:34.834Z,17.50
2019-05-01T14:10:11.841Z,17.30
2019-05-01T14:15:23.341Z,16.80
2019-05-01T14:18:12.107Z,16.80
2019-05-01T14:21:06.587Z,16.80
2019-05-01T14:24:00.631Z,16.80
2019-05-01T14:29:14.177Z,16.70
2019-05-01T14:31:55.994Z,16.70
2019-05-01T14:34:23.605Z,16.70
2019-05-01T14:36:58.851Z,16.70
2019-05-01T14:39:34.942Z,16.50
2019-05-01T14:42:03.338Z,16.50
2019-05-01T14:47:14.950Z,16.20
2019-05-01T14:49:57.787Z,16.10
2019-05-01T14:52:36.057Z,15.90
2019-05-01T14:55:19.347Z,15.80
2019-05-01T14:57:55.757Z,15.60
2019-05-01T15:05:25.095Z,16.00
2019-05-01T15:08:02.401Z,16.10
2019-05-01T15:15:50.972Z,16.20
2019-05-01T15:21:19.815Z,16.10
2019-05-01T15:23:55.855Z,16.10
2019-05-01T15:26:38.772Z,16.10
2019-05-01T15:29:15.659Z,16.00
2019-05-01T15:31:57.970Z,16.10
2019-05-01T15:34:34.216Z,16.10
2019-05-01T15:37:16.935Z,15.90
2019-05-01T15:39:58.167Z,15.70
2019-05-01T15:42:51.311Z,15.60
2019-05-01T15:45:27.189Z,15.60
2019-05-01T15:48:09.749Z,15.60
2019-05-01T15:50:46.557Z,15.70
2019-05-01T15:53:28.973Z,15.60
2019-05-01T15:56:05.164Z,15.60
2019-05-01T15:58:48.230Z,15.60
2019-05-01T16:01:24.933Z,15.70
2019-05-01T16:04:07.649Z,16.10
2019-05-01T16:06:44.291Z,16.70
2019-05-01T16:09:26.245Z,17.10
2019-05-01T16:12:38.058Z,17.50
2019-05-01T16:15:44.443Z,17.60
2019-05-01T16:18:20.337Z,18.00
2019-05-01T16:21:06.427Z,18.60
2019-05-01T16:23:43.168Z,18.80
2019-05-01T16:26:25.120Z,19.10
2019-05-01T16:29:01.187Z,19.30
2019-05-01T16:36:41.264Z,18.70
2019-05-01T16:42:29.425Z,18.40
2019-05-01T16:50:17.234Z,17.90
2019-05-01T16:52:54.123Z,17.80
2019-05-01T16:55:36.608Z,17.80
2019-05-01T16:58:14.963Z,17.80
2019-05-01T17:04:26.967Z,18.00
2019-05-01T17:07:31.400Z,18.10
2019-05-01T17:10:24.343Z,18.20
2019-05-01T17:13:06.663Z,18.20
2019-05-01T17:15:44.495Z,18.10
2019-05-01T17:18:27.174Z,18.10
2019-05-01T17:21:04.846Z,18.10
2019-05-01T17:23:54.321Z,18.10
2019-05-01T17:26:30.339Z,18.00
2019-05-01T17:29:12.545Z,17.80
2019-05-01T17:31:49.016Z,17.70
2019-05-01T17:39:25.446Z,17.40
2019-05-01T17:42:02.213Z,17.40
2019-05-01T17:44:46.236Z,17.40
2019-05-01T17:47:17.852Z,17.40
2019-05-01T17:49:58.763Z,17.30
2019-05-01T17:52:48.723Z,17.30
2019-05-01T17:55:31.471Z,17.30
2019-05-01T17:58:13.831Z,17.30
2019-05-01T18:01:33.341Z,17.20
2019-05-01T18:04:28.354Z,17.30
2019-05-01T18:09:44.376Z,17.20
2019-05-01T18:12:28.384Z,17.00
2019-05-01T18:15:07.979Z,16.90
2019-05-01T18:17:51.461Z,16.80
2019-05-01T18:20:27.363Z,16.60
2019-05-01T18:23:42.851Z,16.50
2019-05-01T18:26:28.404Z,16.40
2019-05-01T18:29:20.898Z,16.40
2019-05-01T18:31:56.974Z,16.20
2019-05-01T18:34:39.576Z,16.10
2019-05-01T18:37:20.718Z,16.00
2019-05-01T18:44:59.370Z,15.90
2019-05-01T18:47:47.939Z,15.90
2019-05-01T18:50:30.304Z,15.80
2019-05-01T18:53:11.393Z,15.70
2019-05-01T18:58:20.740Z,15.10
2019-05-01T19:00:58.678Z,14.80
2019-05-01T19:03:42.386Z,14.50
2019-05-01T19:06:19.645Z,14.30
2019-05-01T19:11:29.249Z,14.10
2019-05-01T19:14:05.577Z,13.90
2019-05-01T19:16:49.028Z,13.90
2019-05-01T19:19:31.649Z,13.80
2019-05-01T19:22:08.211Z,13.70
2019-05-01T19:24:52.050Z,13.60
2019-05-01T19:27:27.639Z,13.50
2019-05-01T19:29:57.936Z,13.50
2019-05-01T19:32:43.157Z,13.40
2019-05-01T19:35:37.955Z,13.40
2019-05-01T19:38:13.995Z,13.40
2019-05-01T19:40:49.437Z,13.30
2019-05-01T19:43:35.880Z,13.30
2019-05-01T19:46:11.930Z,13.20
2019-05-01T19:48:59.057Z,13.30
2019-05-01T19:51:55.581Z,13.20
2019-05-01T19:54:37.839Z,13.10
2019-05-01T19:57:13.551Z,13.00
2019-05-01T19:59:56.431Z,13.00
2019-05-01T20:02:34.081Z,12.90
2019-05-01T20:07:51.193Z,12.90
2019-05-01T20:10:25.520Z,12.90
2019-05-01T20:15:26.993Z,12.80
2019-05-01T20:18:02.741Z,12.90
2019-05-01T20:20:46.043Z,12.90
2019-05-01T20:23:25.933Z,12.80
2019-05-01T20:28:34.452Z,12.70
2019-05-01T20:31:11.194Z,12.70
2019-05-01T20:33:54.841Z,12.60
2019-05-01T20:36:30.141Z,12.50
2019-05-01T20:39:13.143Z,12.40
2019-05-01T20:42:02.861Z,12.40
2019-05-01T20:47:14.263Z,12.30
2019-05-01T20:49:50.788Z,12.20
2019-05-01T20:52:35.266Z,12.20
2019-05-01T20:55:12.438Z,12.20
2019-05-01T20:57:55.708Z,12.20
2019-05-01T21:00:34.551Z,12.20
2019-05-01T21:05:49.654Z,12.10
2019-05-01T21:08:18.414Z,12.00
2019-05-01T21:11:11.135Z,12.00
2019-05-01T21:13:40.649Z,12.00
2019-05-01T21:16:24.101Z,12.00
2019-05-01T21:19:00.387Z,11.90
2019-05-01T21:21:43.440Z,11.90
2019-05-01T21:24:13.974Z,11.90
2019-05-01T21:26:57.695Z,11.90
2019-05-01T21:29:47.006Z,11.80
2019-05-01T21:35:01.109Z,11.80
2019-05-01T21:37:43.478Z,11.70
2019-05-01T21:40:13.902Z,11.70
2019-05-01T21:42:56.919Z,11.60
2019-05-01T21:45:33.230Z,11.60
2019-05-01T21:48:16.266Z,11.60
2019-05-01T21:50:53.717Z,11.70
2019-05-01T21:53:42.043Z,11.70
2019-05-01T21:56:07.684Z,11.60
2019-05-01T21:58:52.028Z,11.60
2019-05-01T22:01:38.040Z,11.50
2019-05-01T22:04:15.862Z,11.50
2019-05-01T22:06:58.231Z,11.50
2019-05-01T22:09:34.732Z,11.50
2019-05-01T22:12:17.722Z,11.40
2019-05-01T22:15:11.055Z,11.40
2019-05-01T22:17:58.135Z,11.40
2019-05-01T22:23:21.981Z,11.30
2019-05-01T22:26:07.806Z,11.30
2019-05-01T22:28:54.842Z,11.20
2019-05-01T22:31:38.031Z,11.20
2019-05-01T22:35:03.565Z,11.20
2019-05-01T22:40:16.594Z,11.10
2019-05-01T22:42:53.205Z,11.10
2019-05-01T22:50:29.753Z,11.10
2019-05-01T22:53:07.837Z,11.10
2019-05-01T22:55:49.888Z,11.10
2019-05-01T22:58:18.829Z,11.10
2019-05-01T23:01:04.067Z,11.00
2019-05-01T23:04:04.627Z,11.00
2019-05-01T23:06:49.911Z,11.00
2019-05-01T23:09:30.180Z,11.00
2019-05-01T23:12:16.183Z,10.90
2019-05-01T23:14:44.458Z,10.90
2019-05-01T23:17:12.795Z,10.90
2019-05-01T23:20:03.963Z,10.80
2019-05-01T23:22:28.683Z,10.80
2019-05-01T23:24:56.399Z,10.80
2019-05-01T23:27:38.807Z,10.80
2019-05-01T23:30:18.863Z,10.80
2019-05-01T23:33:01.911Z,10.70
2019-05-01T23:35:43.819Z,10.70
2019-05-01T23:38:19.397Z,10.70
2019-05-01T23:41:01.907Z,10.50
2019-05-01T23:43:37.879Z,10.50
2019-05-01T23:46:20.391Z,10.40
2019-05-01T23:48:56.757Z,10.40
2019-05-01T23:51:43.453Z,10.40
2019-05-01T23:54:20.444Z,10.40
2019-05-01T23:56:47.999Z,10.40
2019-05-01T23:59:30.895Z,10.40
